עמוד ראשי
METAR-TAF:

METAR-TAF

שדות תעופה :

ארקיפה, פרו

קו רוחב: 16-19S, קו אורך: 071-33W, גובה: 2538מטר

תצפית מזג אוויר נוכחית

הדו"ח נערך לפני 44דקות, בשעה 02:00 UTC
רוח 6קשר מכיוון צפון-מזרח
טמפרטורת 12 צלסיוס
לחות 20%
לחץ 1031 hPa
ראות 10 קילומטר או יותר
ללא עננים שבסיסם נמוך מ 5000 רגל או קומולונימבוס

METAR: SPQU 250200Z 04006KT CAVOK 12/M10 Q1031 RMK PP000

זמן: 21:44 (02:44 UTC)

תחזית

הדו"ח נערך לפני 3 שעות ו 44דקות, בשעה 23:00 UTC
תחזית בתוקף מ 25 ב 00 UTC עד 25 ב 24 UTC
רוח 5קשר מכיוון צפון-מזרח
ראות 10 קילומטר או יותר
ללא עננים שבסיסם נמוך מ 5000 רגל או קומולונימבוס
יעשה מ
25 ב 16 UTC עד 25 ב 18 UTC
רוח 10קשר מכיוון מערב/דרום-מערב
יעשה מ
25 ב 22 UTC עד 25 ב 24 UTC
רוח 5קשר מכיוון צפון-מזרח

TAF: SPQU 242300Z 2500/2524 05005KT CAVOK TX21/2518Z TN08/2510Z BECMG 2516/2518 25010KT BECMG 2522/2524 04005KT

תצפיות ותחזיות מזג אוויר לגבי יותר מ- 4,000 שדות תעופה ברחבי העולם. דוחות METAR ו- TAF.

התחנות הזמינות מסומנות בנקודות צהובות ואדומות על גבי המפה.

העבר את העכבר לנקודה הצבעונית על מנת לראות את שם התחנה.

לאחר מכן, לחץ כדי לראות את תוכן ואת תחזיות מזג האוויר.

כדי לשנות את המפה: לחץ על הכפתורים הירוקים עם הפלוס השחור כדי להתקרב; על הכפתור הירוק עם המקף כדי להתרחק; או בחיצים הירוקים למפות סמוכות.


METAR-TAF: